AirNav   Jet Aviation Boston
 
 1218 users online  

4G2 Hamburg Inc Airport
Hamburg, New York, USA

GOING TO HAMBURG?


FAA INFORMATION EFFECTIVE 29 MARCH 2018

Location

FAA Identifier: 4G2
Lat/Long: 42-42-03.2130N / 078-54-53.1250W
42-42.053550N / 078-54.885417W
42.7008925 / -78.9147569
(estimated)
Elevation: 751 ft. / 228.9 m (surveyed)
Variation: 10W (1985)
From city: 4 miles W of HAMBURG, NY
Time zone: UTC -4 (UTC -5 during Standard Time)
Zip code: 14085

Airport Operations

Airport use: Open to the public
Control tower: no
ARTCC: CLEVELAND CENTER
FSS: BUFFALO FLIGHT SERVICE STATION
NOTAMs facility: BUF (NOTAM-D service available)
Attendance: UNATNDD
Wind indicator: yes
Segmented circle: no
Lights: ACTIVATE LIRL RWY 01/19 - CTAF.

Airport Communications

CTAF/UNICOM: 122.8
WX ASOS at BUF (16 nm NE): PHONE 716-635-0532
  • CD THRU FLT SVCS 1-888-766-8267.

Nearby radio navigation aids

VOR radial/distance  VOR name  Freq  Var
BUFr229/18.1BUFFALO VOR/DME116.4008W
JHWr024/32.1JAMESTOWN VOR/DME114.7007W

 
NDB name  Hdg/Dist  Freq  Var  ID
PLAZZ212/11.220409WGB --. -...

Airport Services

Fuel available: 100
SELF SERVE FUEL
Parking: tiedowns
Airframe service: MINOR
Powerplant service: MINOR

Runway Information

Runway 1/19

Dimensions: 2465 x 30 ft. / 751 x 9 m
Surface: asphalt, in good condition
Runway edge lights: non-standard
NSTD LIRL DUE TO PLACEMENT.
RUNWAY 1  RUNWAY 19
Gradient: 0.6%0.6%
Traffic pattern: leftleft
Displaced threshold: 462 ft.456 ft.
Markings: basic, in good conditionbasic, in good condition
Obstructions: 66 ft. trees, 668 ft. from runway, 7:1 slope to clear
RY 01 HAS +15 FT ROAD, PARALLEL TO RY, 80 FT LEFT AND 15 FT ROAD PERPENDICULAR TO RY, 75 FT FM RY END; +27 FT POLE, 128 FT FM RY END, 91 FT LEFT; +42 FT TREE, 147 FT FM RY END, 118 FT LEFT. +32 FT POLE, 133 FT FM RWY END, 120 FT LEFT; +33 FT POLE, 70 FT FM RY END, 117 FT LEFT.
19 ft. pole, 200 ft. from runway, 116 ft. left of centerline
RY 19 HAS +15 FT ROAD PARALLEL TO RY, 90 FT RIGHT; +15 ROAD ALSO CROSSES EXTDD RY CNTRLN 125 FT FM RY END.

Airport Ownership and Management from official FAA records

Ownership: Privately-owned
Owner: HAMBURG ARPT INC
6765 HELTZ ROAD
LAKEVIEW, NY 14085
Phone 716-627-2440
Manager: ROD & LARRY WALSH
HELTZ ROAD
LAKEVIEW, NY 14085
Phone 716-627-2440

Airport Operational Statistics

Aircraft based on the field: 29
Single engine airplanes: 25
Helicopters: 1
Ultralights: 3
    
Aircraft operations: avg 33/day *
83% local general aviation
17% transient general aviation
* for 12-month period ending 07 May 2015

Additional Remarks

PLINES 120'W OF RWY PARALLEL TO HELTZ RD; RWY 19 PLINES 1350' FROM END OF RWY & EXTENDS ALONG E SIDE OF HELTZ RD.
TIE DOWN AREA AVBL EAST OF RWY 19 END.
ULTRA-LGT ACFT ON & INVOF ARPT.
RWY 01 :+26' POLE, 139' FRM THLD, 94' LT.;+30' POLE,143' FRM THLD, 121' LT.;+33' POLE, 79' FRM THLD, 120' LT., +60' TREES PENETRATE LT. LATRL, TRANS. SURF., 156' LT.;+22' TREES, PARALLEL TO RWY, 110' LT.;+40'-70' TREES PENETRATE LT. LATRL. TRANS. SURF.,130'-180' LT.

Instrument Procedures

There are no published instrument procedures at 4G2.

Some nearby airports with instrument procedures:

9G0 - Buffalo Airfield (13 nm NE)
KBUF - Buffalo Niagara International Airport (16 nm NE)
KDKK - Chautauqua County/Dunkirk Airport (20 nm SW)
KIAG - Niagara Falls International Airport (24 nm N)
0G0 - North Buffalo Suburban Airport (26 nm N)
 
Loc | Ops | Rwys | IFR | FBO | Links
Com | Nav | Svcs | Stats | Notes

AirNav Hotels Sweepstakes
 
Area around 4G2 (Hamburg Inc Airport)
 
Road maps at: MapQuest Bing Google
 
Aerial photo
WARNING: Photo may not be current or correct
Aerial photo of 4G2 (Hamburg Inc Airport)
Do you have a better or more recent aerial photo of Hamburg Inc Airport that you would like to share? If so, please send us your photo.

 
Sectional chart

 
Airport distance calculator
Flying to Hamburg Inc Airport? Find the distance to fly.

From to 4G2

Sunrise and sunset
Times for 20-Apr-2018
 Local
(UTC-4)
 Zulu
(UTC)
Morning civil twilight05:5809:58
Sunrise06:2710:27
Sunset20:0200:02
Evening civil twilight20:3200:32

Current date and time
Zulu (UTC)  20-Apr-2018 21:11:28
Local (UTC-4)  20-Apr-2018 17:11:28
 
METAR
KBUF 
16nm NE 
202054Z 24013KT 10SM FEW045 05/M02 A3040 RMK AO2 SLP302 T00501022 53006
CWPC 
18nm NW 
201900Z AUTO 23018KT 02/M03 RMK AO1 PK WND 23020/1853 SLP303 T00171032 55000
KDKK 
20nm SW 
202053Z AUTO 25010KT 10SM CLR 06/M03 A3043 RMK AO2 SLP310 T00561033 51003
KIAG 
25nm N 
202053Z 32013KT 10SM CLR 08/M04 A3040 RMK AO2 SLP308 T00781044 51004
CYSN 
32nm N 
202000Z 30007KT 270V340 15SM FEW030 06/M04 A3041 RMK SC1 SC TR SLP302
TAF
KBUF 
16nm NE 
201732Z 2018/2118 30010KT P6SM SCT035 FM202000 26011KT P6SM FEW035 FM210000 30006KT P6SM SKC FM210500 VRB03KT P6SM FEW250 FM211300 25006KT P6SM FEW200
NOTAMs
Click for the latest NOTAMs
NOTAMs are issued by the DoD/FAA and will open in a separate window not controlled by AirNav.

 

 
 

FBO, Fuel Providers, and Aircraft Ground Support

  
 Business Name 
 
 Contact 
 
 Services / Description 
 
Fuel Prices
 
Comments
  
Hamburg Airport 716-627-2440
[email]
Aviation fuel, Aircraft parking (ramp or tiedown), Flight training, Aircraft rental, Aerial tours / aerial sightseeing, Aerial photography, Computerized weather, ...

More info about Hamburg Airport
independent
100LL
PS $5.51 
 Updated 13-May-2017
 
   write
PS=Pump service
Update Fuel Prices
 

Would you like to see your business listed on this page?

 If your business provides an interesting product or service to pilots, flight crews, aircraft, or users of the Hamburg Inc Airport, you should consider listing it here.  To start the listing process, click on the button below
 
Add a business
 

Other Pages about Hamburg Inc Airport

Update a link
 
Copyright © AirNav, LLC. All rights reserved. Privacy Policy  Contact